Terminal Aerodrome Forecast
Issued by NWS Houston/Galveston, TX

Home | Current Version | Previous Version | Text Only | Print | Product List | Glossary On
Versions: 1 2 3 4 5 6 7 8 9 10 11 12 13 14 15 16 17 18 19 20 21 22 23 24 25 26 27 28 29 30 31 32 33 34 35 36 37 38 39 40 41 42 43 44 45 46 47 48 49 50
000
FTUS44 KHGX 270955 AAD
TAFCLL
TAF AMD
KCLL 270955Z 2710/2806 06014G30KT P6SM -RA SCT090 BKN120
     FM271200 03014KT P6SM VCSH FEW035 BKN100
     FM271500 08008KT P6SM SCT025
     FM272100 10006KT P6SM BKN040 PROB30 2723/2803 TSRA BKN040CB
     FM280400 34009KT P6SM BKN025 BKN250=

USA.gov is the U.S. government's official web portal to all federal, state and local government web resources and services.